Time;durP1;ratioP1;P1;durP2;ratioP2;P2;SDS_P1;SDS_P2;PMS_P1;PMS_P2;Temp;Humidity;BMP_temperature;BMP_pressure;BME280_temperature;BME280_humidity;BME280_pressure;Samples;Min_cycle;Max_cycle;Signal;HPM_P1;HPM_P2
2022/07/19 00:00:13;;;;;;;7.35;2.63;;;;;;;18.75;49.06;101227.28;4993958;28;20030;-29
2022/07/19 00:02:39;;;;;;;2.40;2.08;;;;;;;18.72;49.22;101230.06;4993918;28;20026;-29
2022/07/19 00:05:05;;;;;;;5.13;2.25;;;;;;;18.66;49.13;101236.47;4993773;28;20044;-29
2022/07/19 00:07:31;;;;;;;5.00;2.38;;;;;;;18.65;49.54;101229.41;4994822;28;20113;-29
2022/07/19 00:09:56;;;;;;;2.78;2.00;;;;;;;18.64;49.50;101227.63;4995171;28;20121;-29
2022/07/19 00:12:21;;;;;;;3.00;2.33;;;;;;;18.63;49.75;101231.22;4993878;28;20111;-29
2022/07/19 00:14:47;;;;;;;4.65;2.67;;;;;;;18.58;49.71;101227.84;4994817;28;20031;-29
2022/07/19 00:17:12;;;;;;;2.45;2.10;;;;;;;18.50;49.87;101225.44;4995472;28;20494;-29
2022/07/19 00:19:38;;;;;;;2.13;1.80;;;;;;;18.44;50.07;101223.00;4994289;28;20160;-29
2022/07/19 00:22:03;;;;;;;2.58;2.38;;;;;;;18.48;50.04;101229.97;4977026;28;20027;-29
2022/07/19 00:24:28;;;;;;;2.10;1.90;;;;;;;18.41;49.78;101231.09;4996319;28;20026;-29
2022/07/19 00:26:54;;;;;;;3.08;1.80;;;;;;;18.33;49.84;101224.22;4995924;28;20096;-29
2022/07/19 00:29:19;;;;;;;2.60;1.95;;;;;;;18.32;49.90;101230.47;4995843;28;20034;-29
2022/07/19 00:31:44;;;;;;;3.20;2.33;;;;;;;18.28;49.68;101225.28;4995013;28;20022;-29
2022/07/19 00:34:10;;;;;;;4.25;2.15;;;;;;;18.24;50.28;101227.16;4994906;28;20466;-29
2022/07/19 00:36:35;;;;;;;1.95;1.85;;;;;;;18.19;50.07;101229.13;4977130;28;20033;-29
2022/07/19 00:39:00;;;;;;;3.97;2.10;;;;;;;18.15;50.06;101222.13;4994898;28;20029;-29
2022/07/19 00:41:26;;;;;;;3.72;1.85;;;;;;;18.13;50.00;101227.53;4993397;28;20041;-29
2022/07/19 00:43:51;;;;;;;5.07;1.92;;;;;;;18.07;50.20;101228.56;4994572;28;20112;-29
2022/07/19 00:46:19;;;;;;;2.22;1.95;;;;;;;18.07;50.40;101212.53;4994438;28;20057;-29
2022/07/19 00:48:45;;;;;;;2.50;1.90;;;;;;;18.01;50.34;101220.72;5006035;28;20038;-29
2022/07/19 00:51:15;;;;;;;4.53;2.80;;;;;;;17.95;50.24;101221.81;4973824;28;20025;-29
2022/07/19 00:53:41;;;;;;;5.75;2.50;;;;;;;17.92;50.56;101229.94;4975137;28;20027;-29
2022/07/19 00:56:09;;;;;;;2.70;1.85;;;;;;;17.89;50.41;101223.81;4974317;28;20117;-30
2022/07/19 00:58:36;;;;;;;2.83;2.35;;;;;;;17.85;50.72;101223.03;4973513;28;20041;-30
2022/07/19 01:01:03;;;;;;;2.88;2.38;;;;;;;17.79;50.82;101224.09;4978171;28;20026;-30
2022/07/19 01:03:28;;;;;;;3.35;2.05;;;;;;;17.74;50.77;101220.69;4993347;28;20146;-29
2022/07/19 01:05:54;;;;;;;2.63;2.20;;;;;;;17.72;50.89;101211.88;4993068;28;20523;-30
2022/07/19 01:08:20;;;;;;;3.38;2.30;;;;;;;17.69;50.88;101217.28;4993540;28;20036;-29
2022/07/19 01:10:45;;;;;;;2.55;2.33;;;;;;;17.68;51.00;101216.41;4993337;28;20121;-30
2022/07/19 01:13:14;;;;;;;2.92;2.03;;;;;;;17.65;50.71;101221.84;4991727;28;20117;-30
2022/07/19 01:15:42;;;;;;;2.92;2.20;;;;;;;17.59;50.89;101216.69;4977440;28;20041;-30
2022/07/19 01:18:08;;;;;;;2.45;2.25;;;;;;;17.62;51.08;101221.06;4973996;28;20038;-29
2022/07/19 01:20:34;;;;;;;2.78;2.47;;;;;;;17.59;51.04;101224.69;4972583;28;20125;-32
2022/07/19 01:23:00;;;;;;;2.70;2.20;;;;;;;17.52;51.02;101231.13;4974176;28;20077;-29
2022/07/19 01:25:31;;;;;;;2.47;2.15;;;;;;;17.48;50.88;101227.69;4975490;28;20026;-29
2022/07/19 01:27:57;;;;;;;4.78;2.45;;;;;;;17.41;51.05;101224.31;4973943;28;20030;-29
2022/07/19 01:30:24;;;;;;;4.38;2.50;;;;;;;17.37;51.06;101219.13;4975889;28;20037;-29
2022/07/19 01:32:51;;;;;;;3.85;2.28;;;;;;;17.35;51.22;101226.28;4976818;28;20057;-29
2022/07/19 01:35:17;;;;;;;3.58;2.05;;;;;;;17.29;51.04;101224.66;4972616;28;20030;-32
2022/07/19 01:37:43;;;;;;;3.40;2.25;;;;;;;17.26;51.16;101214.97;4973081;28;20118;-32
2022/07/19 01:40:11;;;;;;;3.30;2.33;;;;;;;17.24;51.28;101215.94;4973827;28;20065;-33
2022/07/19 01:42:37;;;;;;;3.17;2.72;;;;;;;17.22;51.48;101218.66;4956296;28;20042;-29
2022/07/19 01:45:04;;;;;;;3.75;2.08;;;;;;;17.20;51.53;101220.47;4978475;28;20101;-32
2022/07/19 01:47:30;;;;;;;3.63;2.45;;;;;;;17.19;51.54;101208.06;4992205;28;20471;-32
2022/07/19 01:49:55;;;;;;;2.20;2.05;;;;;;;17.15;51.61;101217.06;4956451;28;20026;-33
2022/07/19 01:52:20;;;;;;;3.38;2.63;;;;;;;17.13;51.36;101217.09;4973699;28;20023;-33
2022/07/19 01:54:46;;;;;;;3.70;2.30;;;;;;;17.09;51.52;101211.91;4973366;28;20087;-33
2022/07/19 01:57:11;;;;;;;3.83;2.30;;;;;;;17.05;51.54;101211.97;4973400;28;20105;-32
2022/07/19 01:59:36;;;;;;;3.60;2.30;;;;;;;16.98;51.63;101215.72;4976000;28;20482;-32
2022/07/19 02:02:02;;;;;;;2.58;2.17;;;;;;;16.98;51.75;101214.84;4991782;28;20516;-32
2022/07/19 02:04:28;;;;;;;3.15;2.38;;;;;;;17.00;51.93;101208.53;4992633;28;20034;-32
2022/07/19 02:06:53;;;;;;;6.30;2.67;;;;;;;17.00;51.83;101207.66;4991351;28;20125;-32
2022/07/19 02:09:18;;;;;;;4.60;2.72;;;;;;;16.95;51.72;101210.47;4992732;28;20030;-32
2022/07/19 02:11:44;;;;;;;2.70;2.22;;;;;;;16.93;51.95;101204.31;4993476;28;20026;-33
2022/07/19 02:14:09;;;;;;;2.90;2.60;;;;;;;16.97;51.73;101208.63;4989206;28;20550;-32
2022/07/19 02:16:36;;;;;;;5.28;2.95;;;;;;;16.92;51.81;101213.22;4971686;28;20022;-32
2022/07/19 02:19:02;;;;;;;3.47;2.25;;;;;;;16.89;52.09;101205.31;4973571;28;20026;-32
2022/07/19 02:21:27;;;;;;;3.63;2.20;;;;;;;16.82;51.79;101204.59;4971879;28;20495;-32
2022/07/19 02:23:53;;;;;;;4.00;2.35;;;;;;;16.72;51.96;101201.31;4972124;28;20034;-32
2022/07/19 02:26:18;;;;;;;4.38;2.30;;;;;;;16.67;51.92;101200.53;4972048;28;20023;-32
2022/07/19 02:28:44;;;;;;;3.58;2.78;;;;;;;16.68;52.15;101196.97;4972461;28;20115;-32
2022/07/19 02:31:09;;;;;;;2.88;2.30;;;;;;;16.67;52.16;101197.88;4979550;28;20549;-32
2022/07/19 02:33:34;;;;;;;3.28;2.80;;;;;;;16.61;51.98;101198.06;4993109;28;20474;-32
2022/07/19 02:36:00;;;;;;;2.33;2.13;;;;;;;16.59;52.20;101195.44;4992468;28;20542;-33
2022/07/19 02:38:25;;;;;;;3.13;2.35;;;;;;;16.54;52.09;101206.19;4992336;28;20030;-32
2022/07/19 02:40:50;;;;;;;2.38;2.10;;;;;;;16.50;52.21;101199.19;4992600;28;20134;-32
2022/07/19 02:43:16;;;;;;;3.53;2.42;;;;;;;16.59;52.68;101202.53;4992032;28;20034;-32
2022/07/19 02:45:41;;;;;;;5.30;2.15;;;;;;;16.57;52.37;101199.06;4992775;28;20061;-32
2022/07/19 02:48:09;;;;;;;2.42;2.22;;;;;;;16.52;52.49;101200.03;4986074;28;20532;-32
2022/07/19 02:50:34;;;;;;;2.53;1.90;;;;;;;16.52;52.69;101201.81;4976915;28;20027;-32
2022/07/19 02:53:00;;;;;;;3.08;1.92;;;;;;;16.43;52.46;101205.59;4975317;28;20081;-31
2022/07/19 02:55:26;;;;;;;4.38;2.58;;;;;;;16.38;52.33;101202.19;4977175;28;20372;-32
2022/07/19 02:57:51;;;;;;;2.28;2.05;;;;;;;16.41;52.96;101202.09;4990762;28;20537;-31
2022/07/19 03:00:16;;;;;;;4.65;2.30;;;;;;;16.42;52.29;101203.84;4996081;28;20129;-32
2022/07/19 03:02:42;;;;;;;3.13;2.28;;;;;;;16.40;52.78;101203.00;4983055;28;20031;-32
2022/07/19 03:05:08;;;;;;;3.50;2.67;;;;;;;16.36;53.12;101209.31;4992008;28;20029;-33
2022/07/19 03:07:33;;;;;;;3.63;2.20;;;;;;;16.26;52.67;101206.91;4996060;28;20296;-32
2022/07/19 03:09:58;;;;;;;3.00;2.65;;;;;;;16.29;53.00;101209.50;4996627;28;20408;-32
2022/07/19 03:12:24;;;;;;;2.30;2.10;;;;;;;16.31;53.12;101203.25;4996464;28;20435;-32
2022/07/19 03:14:49;;;;;;;2.72;2.53;;;;;;;16.27;52.79;101208.63;4994874;28;20390;-32
2022/07/19 03:17:14;;;;;;;3.17;2.40;;;;;;;16.24;52.92;101206.03;4994780;28;20030;-32
2022/07/19 03:19:40;;;;;;;4.72;2.72;;;;;;;16.24;53.07;101213.16;4994650;28;20121;-33
2022/07/19 03:22:05;;;;;;;3.50;2.13;;;;;;;16.21;53.12;101208.78;4994587;28;20040;-32
2022/07/19 03:24:30;;;;;;;4.03;2.28;;;;;;;16.18;52.73;101208.88;4994706;28;20026;-32
2022/07/19 03:26:56;;;;;;;2.58;2.38;;;;;;;16.13;52.86;101208.97;4994617;28;20026;-32
2022/07/19 03:29:22;;;;;;;2.63;2.42;;;;;;;16.12;52.98;101206.34;4994732;28;20034;-32
2022/07/19 03:31:47;;;;;;;6.95;2.50;;;;;;;16.08;53.14;101208.22;4996220;28;20026;-32
2022/07/19 03:34:12;;;;;;;2.55;2.30;;;;;;;16.07;53.24;101213.56;4993981;28;20089;-32
2022/07/19 03:36:38;;;;;;;3.65;2.30;;;;;;;16.08;53.26;101216.19;4994467;28;20022;-32
2022/07/19 03:39:04;;;;;;;3.28;2.80;;;;;;;16.05;53.25;101213.59;4978660;28;20042;-32
2022/07/19 03:41:29;;;;;;;6.40;3.78;;;;;;;16.00;53.37;101221.69;4977148;28;20081;-32
2022/07/19 03:43:54;;;;;;;4.47;2.80;;;;;;;15.95;53.43;101218.28;4958508;28;20034;-32
2022/07/19 03:46:20;;;;;;;2.55;2.30;;;;;;;15.98;53.35;101223.53;4989713;28;20029;-32
2022/07/19 03:48:46;;;;;;;3.97;2.83;;;;;;;15.97;53.76;101224.41;4995332;28;20072;-32
2022/07/19 03:51:11;;;;;;;3.90;2.80;;;;;;;15.90;53.38;101217.44;4992424;28;20092;-32
2022/07/19 03:53:37;;;;;;;3.83;2.80;;;;;;;15.83;53.86;101226.47;4977322;28;20026;-32
2022/07/19 03:56:02;;;;;;;4.72;2.53;;;;;;;15.88;53.99;101224.59;4993785;28;20096;-31
2022/07/19 03:58:29;;;;;;;3.42;2.70;;;;;;;15.91;53.69;101219.22;4994258;28;20027;-32
2022/07/19 04:00:54;;;;;;;3.53;3.17;;;;;;;15.87;53.48;101222.84;4977865;28;20033;-32
2022/07/19 04:03:19;;;;;;;5.55;2.58;;;;;;;15.81;53.39;101221.22;4994763;28;20023;-32
2022/07/19 04:05:45;;;;;;;3.20;2.50;;;;;;;15.85;53.76;101222.00;4993559;28;20076;-32
2022/07/19 04:08:10;;;;;;;3.42;2.83;;;;;;;15.78;53.15;101219.47;4988504;28;20050;-32
2022/07/19 04:10:36;;;;;;;5.60;2.70;;;;;;;15.75;53.66;101216.91;4975598;28;20033;-32
2022/07/19 04:13:01;;;;;;;2.63;2.13;;;;;;;15.77;53.86;101220.38;4973888;28;20070;-29
2022/07/19 04:15:26;;;;;;;2.60;2.40;;;;;;;15.70;53.66;101216.13;4986792;28;20464;-29
2022/07/19 04:17:52;;;;;;;3.15;2.50;;;;;;;15.75;53.96;101216.03;4994616;28;20085;-29
2022/07/19 04:20:17;;;;;;;4.32;2.63;;;;;;;15.81;54.42;101217.66;4994532;28;20553;-29
2022/07/19 04:22:42;;;;;;;5.13;2.80;;;;;;;15.84;54.08;101217.59;4993668;28;20038;-29
2022/07/19 04:25:08;;;;;;;4.13;2.47;;;;;;;15.73;53.88;101225.81;4993233;28;20026;-29
2022/07/19 04:27:34;;;;;;;2.53;2.33;;;;;;;15.71;54.30;101217.00;4994381;28;20026;-29
2022/07/19 04:29:59;;;;;;;3.28;2.30;;;;;;;15.72;53.99;101213.41;4993264;28;20034;-29
2022/07/19 04:32:24;;;;;;;3.75;2.50;;;;;;;15.73;53.82;101221.38;4994422;28;20041;-29
2022/07/19 04:34:50;;;;;;;3.13;2.33;;;;;;;15.77;54.05;101225.72;4993877;28;20430;-29
2022/07/19 04:37:16;;;;;;;4.78;3.08;;;;;;;15.80;53.87;101227.41;4994231;28;20092;-29
2022/07/19 04:39:41;;;;;;;2.88;2.65;;;;;;;15.83;53.82;101226.47;4993097;28;20520;-29
2022/07/19 04:42:06;;;;;;;3.83;2.63;;;;;;;15.86;53.71;101227.28;4981402;28;20030;-29
2022/07/19 04:44:32;;;;;;;3.78;2.55;;;;;;;15.91;53.75;101224.53;4973129;28;20019;-29
2022/07/19 04:46:57;;;;;;;3.78;2.80;;;;;;;15.92;53.87;101228.94;4974799;28;20026;-29
2022/07/19 04:49:23;;;;;;;3.45;2.50;;;;;;;15.97;53.84;101231.53;4974926;28;20031;-29
2022/07/19 04:51:48;;;;;;;3.55;2.50;;;;;;;16.00;53.73;101234.09;4974735;28;20403;-29
2022/07/19 04:54:13;;;;;;;3.63;2.70;;;;;;;16.03;53.67;101229.59;4974421;28;20471;-29
2022/07/19 04:56:39;;;;;;;5.60;2.45;;;;;;;16.08;53.90;101236.59;4973004;28;20582;-29
2022/07/19 04:59:04;;;;;;;3.92;2.47;;;;;;;16.13;53.79;101232.03;4972840;28;20070;-29
2022/07/19 05:01:30;;;;;;;2.67;2.47;;;;;;;16.16;53.61;101232.84;4974370;28;20062;-29
2022/07/19 05:03:56;;;;;;;2.20;2.00;;;;;;;16.22;53.57;101234.50;4974821;28;20082;-29
2022/07/19 05:06:22;;;;;;;2.72;2.47;;;;;;;16.28;53.50;101237.00;4990639;28;20466;-29
2022/07/19 05:08:47;;;;;;;5.18;2.58;;;;;;;16.37;54.02;101240.38;4992033;28;20026;-29
2022/07/19 05:11:12;;;;;;;3.53;2.22;;;;;;;16.42;55.82;101235.78;4976614;28;20478;-29
2022/07/19 05:13:38;;;;;;;3.88;2.30;;;;;;;16.47;54.76;101236.53;4993806;28;20054;-29
2022/07/19 05:16:03;;;;;;;4.03;2.72;;;;;;;16.51;54.31;101237.34;4993597;28;20026;-29
2022/07/19 05:18:29;;;;;;;5.18;2.47;;;;;;;16.59;53.61;101234.47;5013204;28;20029;-29
2022/07/19 05:20:54;;;;;;;2.80;2.28;;;;;;;16.66;53.71;101236.06;5012621;28;20111;-29
2022/07/19 05:23:19;;;;;;;2.35;2.05;;;;;;;16.71;53.52;101231.53;5012935;28;20113;-29
2022/07/19 05:25:45;;;;;;;4.45;2.78;;;;;;;16.77;52.66;101235.78;5012839;28;20032;-29
2022/07/19 05:28:10;;;;;;;3.17;2.50;;;;;;;16.83;52.51;101240.97;5013020;28;20120;-29
2022/07/19 05:30:35;;;;;;;3.28;2.25;;;;;;;16.92;52.40;101242.53;5013090;28;20061;-29
2022/07/19 05:33:01;;;;;;;4.20;2.63;;;;;;;16.98;52.32;101234.38;4995021;28;20037;-29
2022/07/19 05:35:26;;;;;;;2.60;2.40;;;;;;;17.03;52.38;101237.78;5004353;28;20359;-29
2022/07/19 05:37:51;;;;;;;4.43;2.50;;;;;;;17.10;52.07;101238.50;4995088;28;20022;-31
2022/07/19 05:40:17;;;;;;;2.97;2.30;;;;;;;17.17;51.89;101237.41;5013524;28;20424;-32
2022/07/19 05:42:42;;;;;;;3.95;2.38;;;;;;;17.23;51.98;101233.72;5012943;28;20029;-32
2022/07/19 05:45:08;;;;;;;2.30;2.10;;;;;;;17.29;51.86;101241.53;5001303;28;20017;-32
2022/07/19 05:47:33;;;;;;;4.10;2.83;;;;;;;17.37;52.76;101233.31;5032966;28;20062;-31
2022/07/19 05:49:59;;;;;;;6.18;2.67;;;;;;;17.43;51.96;101230.47;5007006;28;20085;-31
2022/07/19 05:52:24;;;;;;;4.00;2.50;;;;;;;17.52;51.65;101234.69;5013303;28;20029;-32
2022/07/19 05:54:50;;;;;;;6.13;2.72;;;;;;;17.61;51.60;101232.66;4995279;28;20084;-31
2022/07/19 05:57:15;;;;;;;4.72;2.58;;;;;;;17.69;51.60;101227.97;5013648;28;20029;-32
2022/07/19 05:59:41;;;;;;;4.28;2.28;;;;;;;17.82;52.12;101239.13;5013550;28;20072;-32
2022/07/19 06:02:07;;;;;;;4.10;2.53;;;;;;;17.91;51.47;101233.50;4996006;28;20509;-32
2022/07/19 06:04:33;;;;;;;5.05;2.58;;;;;;;18.02;51.62;101234.97;4987447;28;20144;-32
2022/07/19 06:06:58;;;;;;;3.65;3.00;;;;;;;18.15;51.51;101231.03;4996075;28;20042;-32
2022/07/19 06:09:23;;;;;;;5.97;2.50;;;;;;;18.26;51.71;101228.00;4996328;28;20033;-32
2022/07/19 06:11:50;;;;;;;7.28;3.00;;;;;;;18.39;51.14;101233.81;5013661;28;20080;-32
2022/07/19 06:14:15;;;;;;;3.20;2.60;;;;;;;18.51;51.81;101237.84;5013813;28;20026;-32
2022/07/19 06:16:40;;;;;;;4.53;2.65;;;;;;;18.65;51.50;101240.09;5011104;28;20044;-32
2022/07/19 06:19:07;;;;;;;5.55;2.67;;;;;;;18.79;51.53;101231.59;4993934;28;20056;-32
2022/07/19 06:21:32;;;;;;;5.22;3.08;;;;;;;18.91;51.32;101238.28;4993463;28;20088;-32
2022/07/19 06:23:58;;;;;;;3.17;2.85;;;;;;;19.05;51.13;101243.16;4993426;28;20023;-31
2022/07/19 06:26:23;;;;;;;5.30;3.47;;;;;;;19.17;51.08;101239.19;4993541;28;20018;-31
2022/07/19 06:28:49;;;;;;;5.03;2.45;;;;;;;19.31;51.03;101238.69;4993694;28;20033;-32
2022/07/19 06:31:16;;;;;;;7.07;2.88;;;;;;;19.46;51.30;101239.03;4993262;28;20026;-31
2022/07/19 06:33:43;;;;;;;3.30;3.00;;;;;;;19.63;51.33;101242.91;4991810;28;20026;-31
2022/07/19 06:36:08;;;;;;;5.05;3.05;;;;;;;19.80;51.25;101240.41;4992946;28;20038;-32
2022/07/19 06:38:33;;;;;;;5.95;2.65;;;;;;;19.95;50.76;101232.72;4992287;28;20022;-32
2022/07/19 06:40:59;;;;;;;4.82;2.72;;;;;;;20.10;51.04;101240.19;4962398;28;20038;-32
2022/07/19 06:43:24;;;;;;;4.95;2.80;;;;;;;20.26;50.74;101236.88;4972706;28;20026;-32
2022/07/19 06:45:49;;;;;;;3.20;2.75;;;;;;;20.43;50.43;101237.97;4984023;28;20026;-32
2022/07/19 06:48:15;;;;;;;5.05;2.65;;;;;;;20.61;50.32;101233.66;4991874;28;20474;-32
2022/07/19 06:50:40;;;;;;;6.43;3.08;;;;;;;20.76;50.05;101232.13;4990487;28;20030;-32
2022/07/19 06:53:05;;;;;;;4.07;2.80;;;;;;;20.92;49.59;101235.03;4991912;28;20034;-32
2022/07/19 06:55:31;;;;;;;10.60;2.72;;;;;;;21.08;49.47;101237.94;4978151;28;20094;-32
2022/07/19 06:57:56;;;;;;;6.80;3.30;;;;;;;21.24;49.43;101245.28;4972475;28;20090;-32
2022/07/19 07:00:21;;;;;;;8.05;3.35;;;;;;;21.39;48.83;101241.91;4972439;28;20027;-32
2022/07/19 07:02:47;;;;;;;3.33;2.63;;;;;;;21.56;48.69;101240.22;4970975;28;20023;-32
2022/07/19 07:05:12;;;;;;;3.45;2.35;;;;;;;21.71;48.74;101235.09;4991283;28;20455;-32
2022/07/19 07:07:39;;;;;;;3.47;2.70;;;;;;;21.87;48.31;101241.50;4991600;28;20030;-32
2022/07/19 07:10:06;;;;;;;4.45;2.63;;;;;;;22.03;48.05;101238.06;4990968;28;20042;-32
2022/07/19 07:12:31;;;;;;;4.90;2.50;;;;;;;22.18;47.75;101225.72;4990565;28;20018;-32
2022/07/19 07:14:57;;;;;;;5.00;2.65;;;;;;;22.38;47.29;101230.06;4991848;28;20073;-32
2022/07/19 07:17:22;;;;;;;4.30;2.88;;;;;;;22.52;47.17;101231.19;5004361;28;20121;-32
2022/07/19 07:19:47;;;;;;;2.85;2.40;;;;;;;22.65;47.15;101235.03;4991941;28;20525;-31
2022/07/19 07:22:13;;;;;;;3.15;2.63;;;;;;;22.81;47.13;101234.25;4991678;28;20030;-31
2022/07/19 07:24:38;;;;;;;5.82;2.95;;;;;;;22.94;46.86;101235.31;4991382;28;20117;-32
2022/07/19 07:27:04;;;;;;;3.60;3.17;;;;;;;23.13;46.58;101231.66;4991947;28;20089;-32
2022/07/19 07:29:29;;;;;;;4.22;2.80;;;;;;;23.30;46.66;101229.88;4974200;28;20030;-32
2022/07/19 07:31:55;;;;;;;4.30;2.55;;;;;;;23.41;46.12;101229.34;4993463;28;20022;-32
2022/07/19 07:34:20;;;;;;;5.22;2.78;;;;;;;23.55;46.15;101236.66;4996161;28;20448;-31
2022/07/19 07:36:46;;;;;;;5.88;2.90;;;;;;;23.73;46.48;101226.66;4995117;28;20038;-32
2022/07/19 07:39:12;;;;;;;4.60;2.50;;;;;;;23.95;45.62;101230.84;4995681;28;20121;-32
2022/07/19 07:41:37;;;;;;;7.97;3.53;;;;;;;24.14;45.69;101224.44;4995662;28;20034;-32
2022/07/19 07:44:03;;;;;;;5.50;2.55;;;;;;;24.28;45.64;101223.63;4995501;28;20402;-32
2022/07/19 07:46:29;;;;;;;3.45;2.40;;;;;;;24.39;45.55;101213.06;5011334;28;20029;-31
2022/07/19 07:48:54;;;;;;;5.32;2.95;;;;;;;24.53;45.61;101214.06;5014607;28;20025;-31
2022/07/19 07:51:19;;;;;;;4.25;2.67;;;;;;;24.70;45.61;101211.22;5014158;28;20022;-32
2022/07/19 07:53:45;;;;;;;4.50;2.67;;;;;;;24.93;44.54;101219.78;5014217;28;20445;-32
2022/07/19 07:56:10;;;;;;;3.83;2.80;;;;;;;25.08;44.65;101217.09;4996798;28;20030;-30
2022/07/19 07:58:35;;;;;;;2.95;2.58;;;;;;;25.19;44.93;101211.91;4977269;28;20038;-30
2022/07/19 08:01:01;;;;;;;2.80;2.50;;;;;;;25.36;45.07;101212.66;4977197;28;20112;-30
2022/07/19 08:03:26;;;;;;;4.47;3.15;;;;;;;25.54;44.77;101210.59;4997083;28;20018;-32
2022/07/19 08:05:51;;;;;;;3.10;2.70;;;;;;;25.73;44.63;101213.03;4996707;28;20068;-30
2022/07/19 08:08:17;;;;;;;4.93;2.58;;;;;;;25.90;44.46;101208.34;5014133;28;20032;-30
2022/07/19 08:10:42;;;;;;;9.80;3.10;;;;;;;26.05;43.74;101208.28;5014301;28;20113;-31
2022/07/19 08:13:08;;;;;;;8.05;2.78;;;;;;;26.22;43.23;101216.16;5013696;28;20485;-30
2022/07/19 08:15:37;;;;;;;4.13;2.75;;;;;;;26.37;43.70;101192.63;4996607;28;20029;-31
2022/07/19 08:18:04;;;;;;;3.90;2.35;;;;;;;26.55;43.53;101199.59;4988999;28;20495;-31
2022/07/19 08:20:29;;;;;;;5.18;2.53;;;;;;;26.72;43.33;101202.00;4975306;28;20057;-31
2022/07/19 08:22:54;;;;;;;3.25;2.83;;;;;;;26.90;42.50;101199.84;4975271;28;20050;-31
2022/07/19 08:25:20;;;;;;;4.90;2.58;;;;;;;27.08;43.31;101191.44;4975035;28;20039;-31
2022/07/19 08:27:45;;;;;;;4.55;2.40;;;;;;;27.23;42.65;101194.00;4974734;28;20129;-31
2022/07/19 08:30:11;;;;;;;10.50;2.85;;;;;;;27.38;42.18;101192.03;4974621;28;20197;-31
2022/07/19 08:32:38;;;;;;;6.45;3.38;;;;;;;27.53;42.16;101184.63;4986103;28;20030;-31
2022/07/19 08:35:08;;;;;;;3.80;2.33;;;;;;;27.73;41.90;101195.84;4992750;28;20037;-31
2022/07/19 08:37:34;;;;;;;4.38;2.95;;;;;;;27.93;41.97;101188.94;4993883;28;20030;-30
2022/07/19 08:39:59;;;;;;;4.50;2.50;;;;;;;28.13;41.33;101198.28;4989158;28;20031;-31
2022/07/19 08:42:25;;;;;;;5.43;2.45;;;;;;;28.26;40.79;101181.94;4973507;28;20023;-30
2022/07/19 08:44:52;;;;;;;7.03;2.90;;;;;;;28.39;40.85;101186.44;4976327;28;20474;-30
2022/07/19 08:47:19;;;;;;;4.10;2.42;;;;;;;28.49;41.47;101192.91;4982239;28;20534;-31
2022/07/19 08:49:44;;;;;;;4.78;2.50;;;;;;;28.64;41.03;101193.53;4992558;28;20042;-30
2022/07/19 08:52:11;;;;;;;4.20;2.70;;;;;;;28.80;41.06;101190.50;5009160;28;20026;-31
2022/07/19 08:54:36;;;;;;;5.97;2.53;;;;;;;29.02;41.24;101188.81;4994128;28;20030;-30
2022/07/19 08:59:46;;;;;;;4.65;2.78;;;;;;;29.37;40.41;101191.53;4993514;28;20041;-31
2022/07/19 09:02:11;;;;;;;3.33;2.42;;;;;;;29.56;39.46;101190.91;4989543;28;20030;-30
2022/07/19 09:04:37;;;;;;;4.18;2.63;;;;;;;29.75;38.73;101190.25;4973112;28;20073;-31
2022/07/19 09:07:02;;;;;;;11.63;3.40;;;;;;;29.89;39.06;101190.94;4974159;28;20058;-31
2022/07/19 09:09:34;;;;;;;4.45;2.35;;;;;;;30.00;39.81;101185.47;4974155;28;20018;-31
2022/07/19 09:12:02;;;;;;;3.33;2.50;;;;;;;30.17;39.16;101183.22;4973927;28;20062;-31
2022/07/19 09:14:30;;;;;;;4.15;2.47;;;;;;;30.31;39.14;101174.72;4972482;28;20026;-31
2022/07/19 09:17:01;;;;;;;2.67;2.10;;;;;;;30.50;38.79;101178.56;4956240;28;20102;-32
2022/07/19 09:19:27;;;;;;;2.92;2.20;;;;;;;30.70;37.82;101182.28;4984179;28;20038;-32
2022/07/19 09:22:00;;;;;;;3.67;2.25;;;;;;;30.82;37.83;101171.34;4991885;28;20026;-32
2022/07/19 09:24:27;;;;;;;2.70;2.30;;;;;;;30.95;37.56;101176.56;4992878;28;20033;-31
2022/07/19 09:27:01;;;;;;;3.35;2.28;;;;;;;31.05;37.05;101177.50;4991859;28;20446;-31
2022/07/19 09:29:28;;;;;;;3.53;2.13;;;;;;;31.18;37.58;101170.94;4991664;28;20036;-31
2022/07/19 09:32:06;;;;;;;4.38;2.65;;;;;;;31.31;36.82;101167.97;4993002;28;20026;-31
2022/07/19 09:34:34;;;;;;;4.75;2.40;;;;;;;31.52;36.08;101170.63;4992039;28;20037;-31
2022/07/19 09:37:09;;;;;;;5.55;2.70;;;;;;;31.62;35.66;101168.78;4992644;28;20037;-30
2022/07/19 09:39:35;;;;;;;4.38;2.40;;;;;;;31.77;35.77;101175.69;4993081;28;20030;-31
2022/07/19 09:42:02;;;;;;;5.47;2.42;;;;;;;31.86;36.23;101178.44;4992837;28;20022;-30
2022/07/19 09:44:28;;;;;;;6.40;2.63;;;;;;;32.02;35.74;101167.97;4992655;28;20054;-31
2022/07/19 09:46:53;;;;;;;3.03;2.15;;;;;;;32.12;35.66;101175.16;4990149;28;20073;-30
2022/07/19 09:49:18;;;;;;;2.60;2.40;;;;;;;32.28;34.84;101176.44;4992855;28;20030;-31
2022/07/19 09:51:49;;;;;;;6.30;2.58;;;;;;;32.41;34.69;101161.63;4975681;28;20030;-30
2022/07/19 09:54:22;;;;;;;3.95;2.33;;;;;;;32.53;34.85;101165.94;4971467;28;20069;-31
2022/07/19 09:56:52;;;;;;;3.17;2.25;;;;;;;32.61;35.03;101174.25;4972727;28;20531;-31
2022/07/19 09:59:19;;;;;;;3.20;2.33;;;;;;;32.76;34.26;101171.91;4976963;28;20018;-30
2022/07/19 10:01:46;;;;;;;7.03;2.90;;;;;;;32.92;34.10;101167.69;4992546;28;20030;-30
2022/07/19 10:04:13;;;;;;;6.53;3.00;;;;;;;33.08;33.04;101171.69;4975634;28;20061;-31
2022/07/19 10:06:40;;;;;;;2.90;2.58;;;;;;;33.22;32.89;101175.78;4992275;28;20398;-31
2022/07/19 10:09:07;;;;;;;7.85;2.58;;;;;;;33.25;33.64;101164.56;4991076;28;20577;-31
2022/07/19 10:11:33;;;;;;;3.22;2.60;;;;;;;33.36;33.81;101160.75;4992526;28;20072;-31
2022/07/19 10:13:59;;;;;;;4.07;2.10;;;;;;;33.46;33.73;101166.16;4992329;28;20054;-31
2022/07/19 10:16:37;;;;;;;3.03;2.70;;;;;;;33.60;33.20;101162.94;4992351;28;20141;-29
2022/07/19 10:19:10;;;;;;;4.80;2.20;;;;;;;33.70;33.38;101156.53;5022083;28;20034;-28
2022/07/19 10:21:36;;;;;;;4.53;2.55;;;;;;;33.85;33.02;101154.97;5011887;28;20064;-28
2022/07/19 10:24:02;;;;;;;4.55;2.47;;;;;;;33.94;32.50;101146.84;4994064;28;20108;-28
2022/07/19 10:26:41;;;;;;;3.85;2.25;;;;;;;34.05;32.42;101147.44;5004293;28;20028;-29
2022/07/19 10:29:12;;;;;;;3.00;2.70;;;;;;;34.13;31.88;101146.69;5011669;28;20061;-29
2022/07/19 10:31:38;;;;;;;3.67;2.20;;;;;;;34.25;31.08;101143.72;5010395;28;20490;-28
2022/07/19 10:34:08;;;;;;;2.40;2.20;;;;;;;34.30;31.17;101141.34;5011489;28;20029;-28
2022/07/19 10:36:40;;;;;;;3.63;1.92;;;;;;;34.41;31.51;101137.50;4994352;28;20030;-28
2022/07/19 10:39:17;;;;;;;2.75;2.25;;;;;;;34.54;30.98;101137.06;4992042;28;20057;-28
2022/07/19 10:42:07;;;;;;;4.32;2.40;;;;;;;34.65;30.57;101144.16;4991948;28;20425;-28
2022/07/19 10:44:34;;;;;;;3.92;2.38;;;;;;;34.73;30.33;101140.59;4992721;28;20015;-28
2022/07/19 10:46:59;;;;;;;6.22;2.35;;;;;;;34.77;29.86;101142.84;4994069;28;20386;-28
2022/07/19 10:49:45;;;;;;;1.83;1.73;;;;;;;34.90;29.44;101139.69;5011447;28;20505;-29
2022/07/19 10:52:29;;;;;;;2.17;1.98;;;;;;;34.93;30.04;101141.22;4993989;28;20274;-28
2022/07/19 10:55:25;;;;;;;3.13;2.53;;;;;;;34.99;30.44;101134.22;5011291;28;20065;-28
2022/07/19 10:57:53;;;;;;;3.03;2.20;;;;;;;35.15;29.69;101134.34;5011338;28;20101;-28
2022/07/19 11:00:20;;;;;;;3.40;2.63;;;;;;;35.25;29.39;101127.84;5010176;28;20026;-29
2022/07/19 11:02:47;;;;;;;3.90;2.25;;;;;;;35.36;29.04;101124.78;5011335;28;20053;-29
2022/07/19 11:05:26;;;;;;;1.80;1.70;;;;;;;35.49;29.08;101129.78;4993632;28;20101;-29
2022/07/19 11:07:52;;;;;;;3.58;2.38;;;;;;;35.45;30.26;101117.44;5013437;28;20022;-29
2022/07/19 11:10:26;;;;;;;4.70;2.20;;;;;;;35.59;30.24;101124.16;5015063;28;20053;-29
2022/07/19 11:12:52;;;;;;;2.20;1.98;;;;;;;35.73;29.23;101119.06;5014796;28;20026;-29
2022/07/19 11:15:18;;;;;;;2.92;2.42;;;;;;;35.77;28.73;101112.22;4997262;28;20022;-29
2022/07/19 11:17:54;;;;;;;3.28;2.25;;;;;;;35.78;29.12;101112.00;5004253;28;20026;-29
2022/07/19 11:20:23;;;;;;;2.08;1.90;;;;;;;35.78;29.21;101102.94;4995463;28;20054;-29
2022/07/19 11:22:48;;;;;;;2.17;2.08;;;;;;;35.88;29.55;101109.13;4975394;28;20035;-29